PWSweather.com
Personal Weather Stations
Station Observations
LUKAS
Viterbo, MartaIT 01010

ViterboMartaIT 01010

Lat: 42.5370989, Lon: 11.9204865

Elevation: 896

Station Type: La Crosse WS 2305

http://www.meteomarta.altervista.org/

High Low Average
Temperature 48.6°F9.2°C 45.7°F7.6°C 47.1°F8.4°C
Dew Point 46.4°F8.0°C 42.9°F6.1°C 44.8°F7.1°C
Winds 11.6 mph 18.7 kmh Calm Calm 3.0 mph SSE4.8 kmh SSE
Wind Gusts 17.4 mph28.0 kmh 1.8 mph2.9 kmh 8.0 mph12.9 kmh
Humidity 93% 88% 92%
Pressure 30.26 in1024.7 mb 30.11 in1019.6 mb -
Precipitation 0.64 in16.3 mm - -
Hour Temp Dew Point Humidity Winds Wind Gusts Pressure Precip Precip Rate Daily Precip Total
12:00 AM 46.6°F8.1°C 43.3°F6.3°C 88% 2.0 mph SW3.2 kmh SW 3.6 mph5.8 kmh 30.26 in1024.7 mb 0.00 in0.0 mm 0.00 in0.0 mm 0.00 in0.0 mm
12:15 AM 46.2°F7.9°C 42.9°F6.1°C 88% Calm Calm 2.2 mph3.5 kmh 30.25 in1024.4 mb 0.00 in0.0 mm 0.00 in0.0 mm 0.00 in0.0 mm
12:30 AM 46.0°F7.8°C 43.0°F6.1°C 89% Calm Calm 2.9 mph4.7 kmh 30.25 in1024.4 mb 0.00 in0.0 mm 0.00 in0.0 mm 0.00 in0.0 mm
12:45 AM 46.2°F7.9°C 43.2°F6.2°C 89% Calm Calm 5.1 mph8.2 kmh 30.25 in1024.4 mb 0.00 in0.0 mm 0.00 in0.0 mm 0.00 in0.0 mm
01:00 AM 46.0°F7.8°C 43.0°F6.1°C 89% 2.5 mph NE4.0 kmh NE 4.0 mph6.4 kmh 30.24 in1024.0 mb 0.00 in0.0 mm 0.00 in0.0 mm 0.00 in0.0 mm
01:15 AM 46.2°F7.9°C 43.2°F6.2°C 89% 3.4 mph NW5.5 kmh NW 4.5 mph7.2 kmh 30.24 in1024.0 mb 0.00 in0.0 mm 0.00 in0.0 mm 0.00 in0.0 mm
01:30 AM 46.6°F8.1°C 43.6°F6.4°C 89% Calm Calm 7.6 mph12.2 kmh 30.23 in1023.7 mb 0.00 in0.0 mm 0.00 in0.0 mm 0.00 in0.0 mm
01:45 AM 46.8°F8.2°C 43.7°F6.5°C 89% 3.8 mph SW6.1 kmh SW 7.4 mph11.9 kmh 30.22 in1023.4 mb 0.00 in0.0 mm 0.00 in0.0 mm 0.00 in0.0 mm
02:00 AM 46.8°F8.2°C 43.7°F6.5°C 89% 3.6 mph ENE5.8 kmh ENE 7.8 mph12.6 kmh 30.22 in1023.4 mb 0.00 in0.0 mm 0.00 in0.0 mm 0.00 in0.0 mm
02:15 AM 46.8°F8.2°C 43.7°F6.5°C 89% 2.7 mph ENE4.3 kmh ENE 6.3 mph10.1 kmh 30.21 in1023.0 mb 0.02 in0.5 mm 0.08 in2.0 mm 0.02 in0.5 mm
02:30 AM 47.3°F8.5°C 44.6°F7.0°C 90% 8.1 mph NNE13.0 kmh NNE 8.5 mph13.7 kmh 30.21 in1023.0 mb 0.05 in1.3 mm 0.12 in3.0 mm 0.05 in1.3 mm
02:45 AM 47.8°F8.8°C 45.1°F7.3°C 90% 5.1 mph NNE8.2 kmh NNE 8.7 mph14.0 kmh 30.21 in1023.0 mb 0.08 in2.0 mm 0.12 in3.0 mm 0.07 in1.8 mm
03:00 AM 48.0°F8.9°C 45.6°F7.6°C 91% 3.1 mph N5.0 kmh N 10.3 mph16.6 kmh 30.20 in1022.7 mb 0.10 in2.5 mm 0.03 in0.8 mm 0.10 in2.5 mm
03:15 AM 48.0°F8.9°C 45.6°F7.6°C 91% Calm Calm 9.6 mph15.4 kmh 30.19 in1022.4 mb 0.12 in3.0 mm 0.08 in2.0 mm 0.15 in3.8 mm
03:30 AM 48.0°F8.9°C 45.6°F7.6°C 91% 3.1 mph NE5.0 kmh NE 7.8 mph12.6 kmh 30.18 in1022.0 mb 0.12 in3.0 mm 0.00 in0.0 mm 0.17 in4.3 mm
03:45 AM 48.0°F8.9°C 45.6°F7.6°C 91% 5.4 mph WSW8.7 kmh WSW 9.6 mph15.4 kmh 30.17 in1021.7 mb 0.10 in2.5 mm 0.00 in0.0 mm 0.17 in4.3 mm
04:00 AM 47.8°F8.8°C 45.7°F7.6°C 92% 5.6 mph W9.0 kmh W 10.5 mph16.9 kmh 30.16 in1021.3 mb 0.08 in2.0 mm 0.00 in0.0 mm 0.17 in4.3 mm
04:15 AM 47.8°F8.8°C 45.7°F7.6°C 92% 2.2 mph NE3.5 kmh NE 11.4 mph18.3 kmh 30.16 in1021.3 mb 0.05 in1.3 mm 0.00 in0.0 mm 0.20 in5.1 mm
04:30 AM 47.8°F8.8°C 45.7°F7.6°C 92% 7.4 mph N11.9 kmh N 8.3 mph13.4 kmh 30.16 in1021.3 mb 0.05 in1.3 mm 0.00 in0.0 mm 0.22 in5.6 mm
04:45 AM 47.7°F8.7°C 45.5°F7.5°C 92% 9.4 mph NW15.1 kmh NW 12.3 mph19.8 kmh 30.15 in1021.0 mb 0.05 in1.3 mm 0.00 in0.0 mm 0.22 in5.6 mm
05:00 AM 47.5°F8.6°C 45.6°F7.6°C 93% 4.7 mph NNE7.6 kmh NNE 11.9 mph19.2 kmh 30.15 in1021.0 mb 0.07 in1.8 mm 0.03 in0.8 mm 0.24 in6.1 mm
05:15 AM 47.1°F8.4°C 45.2°F7.3°C 93% Calm Calm 17.4 mph28.0 kmh 30.15 in1021.0 mb 0.10 in2.5 mm 0.12 in3.0 mm 0.29 in7.4 mm
05:30 AM 47.1°F8.4°C 45.2°F7.3°C 93% 4.7 mph NW7.6 kmh NW 12.1 mph19.5 kmh 30.14 in1020.7 mb 0.08 in2.0 mm 0.00 in0.0 mm 0.29 in7.4 mm
05:45 AM 46.9°F8.3°C 45.0°F7.2°C 93% 4.5 mph N7.2 kmh N 10.7 mph17.2 kmh 30.14 in1020.7 mb 0.08 in2.0 mm 0.00 in0.0 mm 0.29 in7.4 mm
06:00 AM 47.1°F8.4°C 45.2°F7.3°C 93% 3.8 mph NE6.1 kmh NE 10.3 mph16.6 kmh 30.15 in1021.0 mb 0.05 in1.3 mm 0.00 in0.0 mm 0.32 in8.1 mm
06:15 AM 47.1°F8.4°C 45.2°F7.3°C 93% Calm Calm 4.7 mph7.6 kmh 30.15 in1021.0 mb 0.05 in1.3 mm 0.00 in0.0 mm 0.34 in8.6 mm
06:30 AM 47.1°F8.4°C 45.2°F7.3°C 93% Calm Calm 7.2 mph11.6 kmh 30.15 in1021.0 mb 0.05 in1.3 mm 0.00 in0.0 mm 0.34 in8.6 mm
06:45 AM 47.1°F8.4°C 45.2°F7.3°C 93% 2.0 mph ENE3.2 kmh ENE 10.1 mph16.3 kmh 30.15 in1021.0 mb 0.05 in1.3 mm 0.00 in0.0 mm 0.34 in8.6 mm
07:00 AM 46.9°F8.3°C 45.0°F7.2°C 93% Calm Calm 7.6 mph12.2 kmh 30.15 in1021.0 mb 0.02 in0.5 mm 0.00 in0.0 mm 0.34 in8.6 mm
07:15 AM 46.8°F8.2°C 44.9°F7.2°C 93% 1.6 mph NE2.6 kmh NE 6.3 mph10.1 kmh 30.15 in1021.0 mb 0.00 in0.0 mm 0.00 in0.0 mm 0.34 in8.6 mm
07:30 AM 46.6°F8.1°C 44.7°F7.1°C 93% 2.7 mph NE4.3 kmh NE 9.4 mph15.1 kmh 30.15 in1021.0 mb 0.00 in0.0 mm 0.00 in0.0 mm 0.34 in8.6 mm
07:45 AM 46.8°F8.2°C 44.9°F7.2°C 93% 3.1 mph NNW5.0 kmh NNW 6.9 mph11.1 kmh 30.15 in1021.0 mb 0.00 in0.0 mm 0.00 in0.0 mm 0.34 in8.6 mm
08:00 AM 46.6°F8.1°C 44.7°F7.1°C 93% 1.6 mph N2.6 kmh N 5.6 mph9.0 kmh 30.16 in1021.3 mb 0.00 in0.0 mm 0.00 in0.0 mm 0.34 in8.6 mm
08:15 AM 46.6°F8.1°C 44.7°F7.1°C 93% 2.2 mph SW3.5 kmh SW 3.1 mph5.0 kmh 30.15 in1021.0 mb 0.00 in0.0 mm 0.00 in0.0 mm 0.34 in8.6 mm
08:30 AM 46.6°F8.1°C 44.7°F7.1°C 93% 2.5 mph N4.0 kmh N 7.6 mph12.2 kmh 30.15 in1021.0 mb 0.00 in0.0 mm 0.00 in0.0 mm 0.34 in8.6 mm
08:45 AM 47.3°F8.5°C 45.4°F7.4°C 93% 1.1 mph NE1.8 kmh NE 6.7 mph10.8 kmh 30.15 in1021.0 mb 0.00 in0.0 mm 0.00 in0.0 mm 0.34 in8.6 mm
09:00 AM 47.3°F8.5°C 45.4°F7.4°C 93% 1.6 mph NE2.6 kmh NE 6.3 mph10.1 kmh 30.15 in1021.0 mb 0.02 in0.5 mm 0.03 in0.8 mm 0.37 in9.4 mm
09:15 AM 46.8°F8.2°C 44.9°F7.2°C 93% 10.7 mph ENE17.2 kmh ENE 12.1 mph19.5 kmh 30.16 in1021.3 mb 0.02 in0.5 mm 0.00 in0.0 mm 0.37 in9.4 mm
09:30 AM 46.4°F8.0°C 44.5°F6.9°C 93% Calm Calm 10.5 mph16.9 kmh 30.16 in1021.3 mb 0.02 in0.5 mm 0.00 in0.0 mm 0.37 in9.4 mm
09:45 AM 46.2°F7.9°C 44.3°F6.8°C 93% 5.4 mph NW8.7 kmh NW 9.2 mph14.8 kmh 30.17 in1021.7 mb 0.08 in2.0 mm 0.24 in6.1 mm 0.42 in10.7 mm
10:00 AM 45.7°F7.6°C 43.8°F6.6°C 93% 2.7 mph NNW4.3 kmh NNW 8.9 mph14.3 kmh 30.16 in1021.3 mb 0.15 in3.8 mm 0.09 in2.3 mm 0.51 in13.0 mm
10:15 AM 45.7°F7.6°C 43.8°F6.6°C 93% 5.4 mph N8.7 kmh N 8.9 mph14.3 kmh 30.17 in1021.7 mb 0.15 in3.8 mm 0.00 in0.0 mm 0.51 in13.0 mm
10:30 AM 46.2°F7.9°C 44.3°F6.8°C 93% 0.9 mph NE1.4 kmh NE 4.3 mph6.9 kmh 30.17 in1021.7 mb 0.15 in3.8 mm 0.00 in0.0 mm 0.51 in13.0 mm
10:45 AM 46.9°F8.3°C 45.0°F7.2°C 93% Calm Calm 4.9 mph7.9 kmh 30.17 in1021.7 mb 0.10 in2.5 mm 0.00 in0.0 mm 0.51 in13.0 mm
11:00 AM 47.1°F8.4°C 45.2°F7.3°C 93% 1.6 mph NE2.6 kmh NE 5.1 mph8.2 kmh 30.16 in1021.3 mb 0.00 in0.0 mm 0.00 in0.0 mm 0.51 in13.0 mm
11:15 AM 47.1°F8.4°C 45.2°F7.3°C 93% 2.5 mph N4.0 kmh N 5.4 mph8.7 kmh 30.17 in1021.7 mb 0.00 in0.0 mm 0.00 in0.0 mm 0.51 in13.0 mm
11:30 AM 47.3°F8.5°C 45.4°F7.4°C 93% 1.3 mph N2.1 kmh N 6.3 mph10.1 kmh 30.16 in1021.3 mb 0.00 in0.0 mm 0.00 in0.0 mm 0.51 in13.0 mm
11:45 AM 47.1°F8.4°C 45.2°F7.3°C 93% 4.7 mph NNE7.6 kmh NNE 5.4 mph8.7 kmh 30.16 in1021.3 mb 0.00 in0.0 mm 0.00 in0.0 mm 0.51 in13.0 mm
12:00 PM 46.9°F8.3°C 45.0°F7.2°C 93% Calm Calm 4.9 mph7.9 kmh 30.15 in1021.0 mb 0.00 in0.0 mm 0.00 in0.0 mm 0.51 in13.0 mm
12:15 PM 47.3°F8.5°C 45.4°F7.4°C 93% Calm Calm 3.8 mph6.1 kmh 30.14 in1020.7 mb 0.02 in0.5 mm 0.08 in2.0 mm 0.54 in13.7 mm
12:30 PM 47.3°F8.5°C 45.1°F7.3°C 92% Calm Calm 2.5 mph4.0 kmh 30.13 in1020.3 mb 0.02 in0.5 mm 0.00 in0.0 mm 0.54 in13.7 mm
12:45 PM 47.5°F8.6°C 45.3°F7.4°C 92% Calm Calm 1.8 mph2.9 kmh 30.13 in1020.3 mb 0.02 in0.5 mm 0.00 in0.0 mm 0.54 in13.7 mm
01:00 PM 47.5°F8.6°C 45.3°F7.4°C 92% 1.3 mph WSW2.1 kmh WSW 2.5 mph4.0 kmh 30.13 in1020.3 mb 0.02 in0.5 mm 0.00 in0.0 mm 0.54 in13.7 mm
01:15 PM 47.5°F8.6°C 45.3°F7.4°C 92% Calm Calm 2.9 mph4.7 kmh 30.12 in1020.0 mb 0.00 in0.0 mm 0.00 in0.0 mm 0.54 in13.7 mm
01:30 PM 48.0°F8.9°C 45.7°F7.6°C 92% Calm Calm 2.5 mph4.0 kmh 30.12 in1020.0 mb 0.00 in0.0 mm 0.00 in0.0 mm 0.54 in13.7 mm
01:45 PM 48.4°F9.1°C 46.2°F7.9°C 92% Calm Calm 4.9 mph7.9 kmh 30.12 in1020.0 mb 0.00 in0.0 mm 0.00 in0.0 mm 0.54 in13.7 mm
02:00 PM 48.6°F9.2°C 46.4°F8.0°C 92% 3.8 mph NE6.1 kmh NE 8.5 mph13.7 kmh 30.11 in1019.6 mb 0.00 in0.0 mm 0.00 in0.0 mm 0.54 in13.7 mm
02:15 PM 48.6°F9.2°C 46.4°F8.0°C 92% 2.0 mph NE3.2 kmh NE 7.2 mph11.6 kmh 30.11 in1019.6 mb 0.00 in0.0 mm 0.00 in0.0 mm 0.54 in13.7 mm
02:30 PM 48.4°F9.1°C 46.2°F7.9°C 92% 5.6 mph N9.0 kmh N 7.2 mph11.6 kmh 30.11 in1019.6 mb 0.00 in0.0 mm 0.00 in0.0 mm 0.54 in13.7 mm
02:45 PM 48.2°F9.0°C 46.0°F7.8°C 92% 4.7 mph ENE7.6 kmh ENE 10.5 mph16.9 kmh 30.11 in1019.6 mb 0.00 in0.0 mm 0.00 in0.0 mm 0.54 in13.7 mm
03:00 PM 48.4°F9.1°C 46.2°F7.9°C 92% 4.3 mph N6.9 kmh N 9.2 mph14.8 kmh 30.11 in1019.6 mb 0.00 in0.0 mm 0.00 in0.0 mm 0.54 in13.7 mm
03:15 PM 48.0°F8.9°C 45.6°F7.6°C 91% 2.5 mph NE4.0 kmh NE 7.2 mph11.6 kmh 30.11 in1019.6 mb 0.00 in0.0 mm 0.00 in0.0 mm 0.54 in13.7 mm
03:30 PM 48.0°F8.9°C 45.6°F7.6°C 91% 3.6 mph N5.8 kmh N 5.8 mph9.3 kmh 30.11 in1019.6 mb 0.00 in0.0 mm 0.00 in0.0 mm 0.54 in13.7 mm
03:45 PM 48.0°F8.9°C 45.6°F7.6°C 91% 2.5 mph NE4.0 kmh NE 4.7 mph7.6 kmh 30.11 in1019.6 mb 0.00 in0.0 mm 0.00 in0.0 mm 0.54 in13.7 mm
04:00 PM 48.0°F8.9°C 45.6°F7.6°C 91% 2.0 mph NNE3.2 kmh NNE 4.0 mph6.4 kmh 30.11 in1019.6 mb 0.02 in0.5 mm 0.03 in0.8 mm 0.56 in14.2 mm
04:15 PM 48.0°F8.9°C 45.9°F7.7°C 92% Calm Calm 5.4 mph8.7 kmh 30.11 in1019.6 mb 0.02 in0.5 mm 0.00 in0.0 mm 0.56 in14.2 mm
04:30 PM 48.0°F8.9°C 45.9°F7.7°C 92% 3.4 mph E5.5 kmh E 6.3 mph10.1 kmh 30.11 in1019.6 mb 0.02 in0.5 mm 0.00 in0.0 mm 0.56 in14.2 mm
04:45 PM 47.7°F8.7°C 45.5°F7.5°C 92% Calm Calm 5.4 mph8.7 kmh 30.11 in1019.6 mb 0.02 in0.5 mm 0.00 in0.0 mm 0.56 in14.2 mm
05:00 PM 47.7°F8.7°C 45.5°F7.5°C 92% 2.9 mph NE4.7 kmh NE 5.1 mph8.2 kmh 30.11 in1019.6 mb 0.00 in0.0 mm 0.00 in0.0 mm 0.56 in14.2 mm
05:15 PM 47.3°F8.5°C 45.1°F7.3°C 92% 1.6 mph N2.6 kmh N 4.7 mph7.6 kmh 30.11 in1019.6 mb 0.00 in0.0 mm 0.00 in0.0 mm 0.56 in14.2 mm
05:30 PM 47.3°F8.5°C 45.1°F7.3°C 92% 3.8 mph N6.1 kmh N 3.8 mph6.1 kmh 30.11 in1019.6 mb 0.00 in0.0 mm 0.00 in0.0 mm 0.56 in14.2 mm
05:45 PM 47.1°F8.4°C 45.0°F7.2°C 92% 1.3 mph NNE2.1 kmh NNE 4.9 mph7.9 kmh 30.11 in1019.6 mb 0.00 in0.0 mm 0.00 in0.0 mm 0.56 in14.2 mm
06:00 PM 46.9°F8.3°C 44.8°F7.1°C 92% Calm Calm 4.3 mph6.9 kmh 30.11 in1019.6 mb 0.00 in0.0 mm 0.00 in0.0 mm 0.56 in14.2 mm
06:15 PM 47.1°F8.4°C 45.2°F7.3°C 93% Calm Calm 3.8 mph6.1 kmh 30.12 in1020.0 mb 0.00 in0.0 mm 0.00 in0.0 mm 0.56 in14.2 mm
06:30 PM 47.3°F8.5°C 45.4°F7.4°C 93% 2.5 mph SE4.0 kmh SE 4.5 mph7.2 kmh 30.12 in1020.0 mb 0.00 in0.0 mm 0.00 in0.0 mm 0.56 in14.2 mm
06:45 PM 47.1°F8.4°C 45.2°F7.3°C 93% 5.1 mph NNE8.2 kmh NNE 10.3 mph16.6 kmh 30.12 in1020.0 mb 0.05 in1.3 mm 0.20 in5.1 mm 0.61 in15.5 mm
07:00 PM 46.9°F8.3°C 45.0°F7.2°C 93% 3.6 mph ENE5.8 kmh ENE 6.3 mph10.1 kmh 30.12 in1020.0 mb 0.08 in2.0 mm 0.04 in1.0 mm 0.64 in16.3 mm
07:15 PM 46.6°F8.1°C 44.7°F7.1°C 93% 2.2 mph N3.5 kmh N 5.4 mph8.7 kmh 30.12 in1020.0 mb 0.08 in2.0 mm 0.00 in0.0 mm 0.64 in16.3 mm
07:30 PM 46.4°F8.0°C 44.5°F6.9°C 93% 3.6 mph ENE5.8 kmh ENE 6.0 mph9.7 kmh 30.12 in1020.0 mb 0.08 in2.0 mm 0.00 in0.0 mm 0.64 in16.3 mm
07:45 PM 46.2°F7.9°C 44.3°F6.8°C 93% 4.3 mph N6.9 kmh N 6.3 mph10.1 kmh 30.13 in1020.3 mb 0.02 in0.5 mm 0.00 in0.0 mm 0.64 in16.3 mm
08:00 PM 46.9°F8.3°C 45.0°F7.2°C 93% 7.6 mph N12.2 kmh N 12.1 mph19.5 kmh 30.13 in1020.3 mb 0.00 in0.0 mm 0.00 in0.0 mm 0.64 in16.3 mm
08:15 PM 47.1°F8.4°C 45.0°F7.2°C 92% 5.8 mph NNE9.3 kmh NNE 12.3 mph19.8 kmh 30.13 in1020.3 mb 0.00 in0.0 mm 0.00 in0.0 mm 0.64 in16.3 mm
08:30 PM 47.1°F8.4°C 45.0°F7.2°C 92% 9.6 mph N15.4 kmh N 13.2 mph21.2 kmh 30.13 in1020.3 mb 0.00 in0.0 mm 0.00 in0.0 mm 0.64 in16.3 mm
08:45 PM 47.3°F8.5°C 45.1°F7.3°C 92% 7.2 mph E11.6 kmh E 9.8 mph15.8 kmh 30.14 in1020.7 mb 0.00 in0.0 mm 0.00 in0.0 mm 0.64 in16.3 mm
09:00 PM 47.1°F8.4°C 44.7°F7.1°C 91% 10.5 mph NW16.9 kmh NW 13.6 mph21.9 kmh 30.14 in1020.7 mb 0.00 in0.0 mm 0.00 in0.0 mm 0.64 in16.3 mm
09:15 PM 46.8°F8.2°C 44.3°F6.8°C 91% 8.1 mph NNW13.0 kmh NNW 15.7 mph25.3 kmh 30.14 in1020.7 mb 0.00 in0.0 mm 0.00 in0.0 mm 0.64 in16.3 mm
09:30 PM 46.6°F8.1°C 44.2°F6.8°C 91% 6.0 mph N9.7 kmh N 12.3 mph19.8 kmh 30.14 in1020.7 mb 0.00 in0.0 mm 0.00 in0.0 mm 0.64 in16.3 mm
09:45 PM 46.6°F8.1°C 44.2°F6.8°C 91% 11.6 mph NE18.7 kmh NE 12.5 mph20.1 kmh 30.14 in1020.7 mb 0.00 in0.0 mm 0.00 in0.0 mm 0.64 in16.3 mm
10:00 PM 46.6°F8.1°C 43.9°F6.6°C 90% 7.4 mph NE11.9 kmh NE 14.3 mph23.0 kmh 30.14 in1020.7 mb 0.00 in0.0 mm 0.00 in0.0 mm 0.64 in16.3 mm
10:15 PM 46.2°F7.9°C 43.5°F6.4°C 90% 9.2 mph WNW14.8 kmh WNW 14.3 mph23.0 kmh 30.14 in1020.7 mb 0.00 in0.0 mm 0.00 in0.0 mm 0.64 in16.3 mm
10:30 PM 46.0°F7.8°C 43.0°F6.1°C 89% 5.1 mph N8.2 kmh N 12.8 mph20.6 kmh 30.15 in1021.0 mb 0.00 in0.0 mm 0.00 in0.0 mm 0.64 in16.3 mm
10:45 PM 46.2°F7.9°C 43.2°F6.2°C 89% 11.2 mph NNE18.0 kmh NNE 11.2 mph18.0 kmh 30.15 in1021.0 mb 0.00 in0.0 mm 0.00 in0.0 mm 0.64 in16.3 mm
11:00 PM 46.2°F7.9°C 43.2°F6.2°C 89% 3.4 mph WNW5.5 kmh WNW 13.0 mph20.9 kmh 30.15 in1021.0 mb 0.00 in0.0 mm 0.00 in0.0 mm 0.64 in16.3 mm
11:15 PM 46.2°F7.9°C 43.2°F6.2°C 89% 6.9 mph SW11.1 kmh SW 11.6 mph18.7 kmh 30.16 in1021.3 mb 0.00 in0.0 mm 0.00 in0.0 mm 0.64 in16.3 mm
11:30 PM 46.2°F7.9°C 42.9°F6.1°C 88% 4.0 mph SSW6.4 kmh SSW 12.8 mph20.6 kmh 30.15 in1021.0 mb 0.00 in0.0 mm 0.00 in0.0 mm 0.64 in16.3 mm
11:45 PM 46.2°F7.9°C 42.9°F6.1°C 88% 7.8 mph SSW12.6 kmh SSW 11.0 mph17.7 kmh 30.16 in1021.3 mb 0.00 in0.0 mm 0.00 in0.0 mm 0.64 in16.3 mm